createdAt,value
2023-04-10T00:00:57.656Z,11.65
2023-04-10T00:03:25.419Z,11.43
2023-04-10T00:05:54.780Z,10.75
2023-04-10T00:08:23.871Z,11.88
2023-04-10T00:10:51.017Z,12.60
2023-04-10T00:13:17.771Z,10.88
2023-04-10T00:15:44.848Z,10.52
2023-04-10T00:18:12.289Z,11.68
2023-04-10T00:20:38.968Z,11.20
2023-04-10T00:23:06.495Z,11.45
2023-04-10T00:25:33.201Z,12.90
2023-04-10T00:27:59.872Z,10.60
2023-04-10T00:30:26.682Z,11.20
2023-04-10T00:32:53.388Z,10.00
2023-04-10T00:35:20.385Z,10.05
2023-04-10T00:37:47.075Z,10.00
2023-04-10T00:40:13.879Z,11.23
2023-04-10T00:42:40.612Z,10.70
2023-04-10T00:45:07.815Z,10.68
2023-04-10T00:47:36.698Z,10.25
2023-04-10T00:50:04.360Z,10.30
2023-04-10T00:52:32.791Z,10.73
2023-04-10T00:54:59.578Z,10.73
2023-04-10T00:57:27.151Z,10.60
2023-04-10T00:59:54.124Z,10.30
2023-04-10T01:02:21.319Z,10.15
2023-04-10T01:04:48.491Z,10.68
2023-04-10T01:07:15.585Z,10.18
2023-04-10T01:09:52.984Z,11.65
2023-04-10T01:12:44.968Z,9.88
2023-04-10T01:15:37.572Z,10.40
2023-04-10T01:18:28.904Z,10.48
2023-04-10T01:20:56.648Z,10.57
2023-04-10T01:23:58.018Z,10.38
2023-04-10T01:26:50.498Z,10.63
2023-04-10T01:29:23.144Z,11.10
2023-04-10T01:31:55.288Z,10.00
2023-04-10T01:34:45.502Z,9.95
2023-04-10T01:37:33.501Z,10.85
2023-04-10T01:40:08.712Z,10.65
2023-04-10T01:42:42.356Z,10.38
2023-04-10T01:45:16.161Z,11.38
2023-04-10T01:47:43.848Z,11.85
2023-04-10T01:50:12.151Z,11.10
2023-04-10T01:52:40.692Z,10.90
2023-04-10T01:55:09.101Z,11.80
2023-04-10T01:57:38.543Z,12.05
2023-04-10T02:00:05.872Z,10.48
2023-04-10T02:02:33.885Z,11.43
2023-04-10T02:05:01.058Z,11.13
2023-04-10T02:07:36.708Z,11.18
2023-04-10T02:10:22.347Z,11.35
2023-04-10T02:13:10.227Z,11.32
2023-04-10T02:15:41.295Z,12.00
2023-04-10T02:18:10.198Z,12.15
2023-04-10T02:20:37.694Z,11.82
2023-04-10T02:23:05.558Z,11.50
2023-04-10T02:25:35.919Z,11.70
2023-04-10T02:28:06.681Z,16.23
2023-04-10T02:30:33.842Z,11.63
2023-04-10T02:33:01.127Z,12.90
2023-04-10T02:35:29.274Z,11.93
2023-04-10T02:37:56.241Z,11.65
2023-04-10T02:40:23.323Z,12.57
2023-04-10T02:42:50.078Z,14.38
2023-04-10T02:45:16.872Z,13.25
2023-04-10T02:47:43.779Z,13.70
2023-04-10T02:50:11.508Z,11.93
2023-04-10T02:52:38.240Z,14.23
2023-04-10T02:55:05.744Z,13.75
2023-04-10T02:57:32.531Z,12.20
2023-04-10T02:59:59.289Z,11.50
2023-04-10T03:02:26.606Z,11.98
2023-04-10T03:04:53.658Z,12.23
2023-04-10T03:07:20.617Z,13.70
2023-04-10T03:09:47.341Z,13.68
2023-04-10T03:12:14.002Z,12.48
2023-04-10T03:14:41.513Z,13.00
2023-04-10T03:17:08.224Z,12.40
2023-04-10T03:19:35.134Z,12.93
2023-04-10T03:22:02.414Z,12.48
2023-04-10T03:24:29.179Z,13.77
2023-04-10T03:26:57.209Z,13.40
2023-04-10T03:29:24.073Z,12.85
2023-04-10T03:31:51.028Z,13.68
2023-04-10T03:34:18.451Z,13.43
2023-04-10T03:36:45.141Z,15.98
2023-04-10T03:39:12.008Z,14.00
2023-04-10T03:41:38.676Z,14.15
2023-04-10T03:44:05.571Z,15.30
2023-04-10T03:46:32.251Z,15.60
2023-04-10T03:48:59.006Z,14.65
2023-04-10T03:51:26.789Z,15.90
2023-04-10T03:53:53.846Z,17.15
2023-04-10T03:56:20.750Z,13.90
2023-04-10T03:58:47.494Z,15.60
2023-04-10T04:01:14.380Z,15.85
2023-04-10T04:03:41.238Z,15.55
2023-04-10T04:06:08.035Z,15.20
2023-04-10T04:08:36.370Z,15.93
2023-04-10T04:11:03.153Z,14.65
2023-04-10T04:13:29.850Z,14.55
2023-04-10T04:15:56.555Z,16.40
2023-04-10T04:18:23.275Z,14.40
2023-04-10T04:20:49.967Z,14.13
2023-04-10T04:23:17.848Z,14.77
2023-04-10T04:25:44.673Z,15.10
2023-04-10T04:28:13.677Z,17.73
2023-04-10T04:30:40.420Z,16.63
2023-04-10T04:33:07.178Z,16.55
2023-04-10T04:35:34.099Z,18.92
2023-04-10T04:38:00.947Z,20.30
2023-04-10T04:40:27.889Z,18.02
2023-04-10T04:42:54.643Z,16.65
2023-04-10T04:45:21.910Z,15.32
2023-04-10T04:47:48.717Z,15.05
2023-04-10T04:50:15.498Z,15.23
2023-04-10T04:52:43.451Z,14.38
2023-04-10T04:55:10.522Z,15.52
2023-04-10T04:57:37.268Z,15.57
2023-04-10T05:00:04.350Z,16.48
2023-04-10T05:02:31.181Z,14.70
2023-04-10T05:04:58.101Z,14.20
2023-04-10T05:07:24.844Z,14.43
2023-04-10T05:09:51.877Z,14.27
2023-04-10T05:12:18.670Z,13.95
2023-04-10T05:14:46.156Z,14.13
2023-04-10T05:17:12.875Z,14.48
2023-04-10T05:19:39.585Z,15.18
2023-04-10T05:22:06.271Z,14.00
2023-04-10T05:24:33.184Z,15.00
2023-04-10T05:27:00.837Z,16.98
2023-04-10T05:29:27.648Z,16.13
2023-04-10T05:31:54.396Z,16.73
2023-04-10T05:34:21.116Z,16.63
2023-04-10T05:36:47.824Z,18.58
2023-04-10T05:39:15.847Z,19.60
2023-04-10T05:41:42.690Z,18.15
2023-04-10T05:44:09.590Z,18.35
2023-04-10T05:46:36.332Z,18.25
2023-04-10T05:49:03.046Z,18.23
2023-04-10T05:51:29.780Z,20.80
2023-04-10T05:53:56.536Z,20.75
2023-04-10T05:56:23.230Z,21.98
2023-04-10T05:58:49.944Z,19.58
2023-04-10T06:01:16.639Z,20.35
2023-04-10T06:03:43.716Z,19.45
2023-04-10T06:06:11.079Z,16.92
2023-04-10T06:08:37.808Z,17.17
2023-04-10T06:11:04.710Z,17.42
2023-04-10T06:13:32.351Z,17.92
2023-04-10T06:15:59.013Z,19.17
2023-04-10T06:18:25.909Z,16.98
2023-04-10T06:20:52.529Z,16.40
2023-04-10T06:23:19.198Z,17.40
2023-04-10T06:25:45.941Z,17.90
2023-04-10T06:28:12.672Z,14.73
2023-04-10T06:30:39.372Z,15.13
2023-04-10T06:33:06.367Z,13.45
2023-04-10T06:35:33.869Z,14.60
2023-04-10T06:38:00.738Z,14.75
2023-04-10T06:40:29.422Z,14.88
2023-04-10T06:42:56.412Z,13.10
2023-04-10T06:45:23.098Z,14.90
2023-04-10T06:47:49.895Z,11.90
2023-04-10T06:50:16.577Z,11.63
2023-04-10T06:52:47.950Z,13.57
2023-04-10T06:55:14.769Z,12.40
2023-04-10T06:57:42.039Z,12.95
2023-04-10T07:00:09.566Z,12.02
2023-04-10T07:02:36.374Z,11.55
2023-04-10T07:05:03.130Z,12.18
2023-04-10T07:07:29.798Z,10.65
2023-04-10T07:09:57.904Z,12.07
2023-04-10T07:12:24.643Z,10.18
2023-04-10T07:14:51.302Z,12.55
2023-04-10T07:17:17.953Z,10.98
2023-04-10T07:19:44.994Z,12.32
2023-04-10T07:22:11.726Z,9.70
2023-04-10T07:24:38.464Z,9.57
2023-04-10T07:27:05.130Z,10.63
2023-04-10T07:29:31.845Z,13.15
2023-04-10T07:31:59.143Z,10.50
2023-04-10T07:34:26.005Z,11.07
2023-04-10T07:36:52.753Z,10.95
2023-04-10T07:39:19.594Z,9.70
2023-04-10T07:41:46.329Z,9.80
2023-04-10T07:44:13.286Z,9.35
2023-04-10T07:46:40.362Z,10.20
2023-04-10T07:49:08.730Z,9.60
2023-04-10T07:51:36.131Z,11.70
2023-04-10T07:54:04.302Z,12.10
2023-04-10T07:56:33.762Z,9.02
2023-04-10T07:59:03.126Z,9.75
2023-04-10T08:01:29.858Z,10.45
2023-04-10T08:03:56.768Z,10.35
2023-04-10T08:06:23.810Z,9.38
2023-04-10T08:08:52.381Z,8.50
2023-04-10T08:11:24.834Z,9.55
2023-04-10T08:13:52.914Z,8.30
2023-04-10T08:16:23.531Z,9.65
2023-04-10T08:18:50.377Z,9.43
2023-04-10T08:21:17.061Z,9.50
2023-04-10T08:23:43.815Z,9.02
2023-04-10T08:26:10.744Z,9.20
2023-04-10T08:28:37.823Z,9.82
2023-04-10T08:31:04.865Z,8.60
2023-04-10T08:33:31.823Z,8.10
2023-04-10T08:35:58.538Z,8.60
2023-04-10T08:38:27.592Z,10.93
2023-04-10T08:40:54.908Z,9.13
2023-04-10T08:43:21.708Z,9.38
2023-04-10T08:45:49.068Z,7.75
2023-04-10T08:48:18.548Z,7.95
2023-04-10T08:50:46.349Z,6.95
2023-04-10T08:53:15.035Z,6.07
2023-04-10T08:55:42.238Z,6.97
2023-04-10T08:58:10.450Z,6.60
2023-04-10T09:00:40.564Z,8.02
2023-04-10T09:03:15.098Z,6.53
2023-04-10T09:05:41.970Z,6.10
2023-04-10T09:08:09.640Z,6.88
2023-04-10T09:10:36.389Z,7.20
2023-04-10T09:13:03.187Z,7.15
2023-04-10T09:15:29.858Z,7.32
2023-04-10T09:18:00.766Z,5.05
2023-04-10T09:20:30.288Z,5.07
2023-04-10T09:22:57.351Z,6.75
2023-04-10T09:25:39.110Z,4.68
2023-04-10T09:28:07.975Z,3.40
2023-04-10T09:30:39.968Z,3.90
2023-04-10T09:33:21.960Z,4.00
2023-04-10T09:35:49.321Z,4.00
2023-04-10T09:38:22.620Z,3.47
2023-04-10T09:40:49.357Z,3.50
2023-04-10T09:43:24.433Z,3.72
2023-04-10T09:45:53.424Z,4.03
2023-04-10T09:48:20.963Z,3.92
2023-04-10T09:50:48.094Z,4.10
2023-04-10T09:53:17.020Z,4.60
2023-04-10T09:55:44.178Z,4.15
2023-04-10T09:58:11.529Z,3.05
2023-04-10T10:00:40.043Z,3.40
2023-04-10T10:03:10.504Z,3.92
2023-04-10T10:05:46.221Z,4.03
2023-04-10T10:08:14.422Z,4.18
2023-04-10T10:10:47.428Z,3.50
2023-04-10T10:13:27.971Z,4.05
2023-04-10T10:16:06.786Z,4.07
2023-04-10T10:18:45.834Z,6.00
2023-04-10T10:21:14.020Z,4.70
2023-04-10T10:23:44.203Z,4.00
2023-04-10T10:26:11.485Z,3.42
2023-04-10T10:28:40.380Z,3.70
2023-04-10T10:31:07.297Z,3.95
2023-04-10T10:33:37.024Z,3.75
2023-04-10T10:36:04.746Z,3.15
2023-04-10T10:38:32.084Z,3.15
2023-04-10T10:41:10.652Z,4.50
2023-04-10T10:43:56.301Z,2.55
2023-04-10T10:46:37.971Z,4.07
2023-04-10T10:49:04.657Z,2.70
2023-04-10T10:51:43.013Z,2.63
2023-04-10T10:54:29.240Z,2.80
2023-04-10T10:56:56.032Z,3.10
2023-04-10T10:59:47.782Z,3.17
2023-04-10T11:02:17.309Z,3.20
2023-04-10T11:04:45.816Z,3.20
2023-04-10T11:07:13.385Z,2.80
2023-04-10T11:09:51.198Z,2.30
2023-04-10T11:12:21.528Z,3.13
2023-04-10T11:14:59.972Z,2.33
2023-04-10T11:17:52.727Z,2.30
2023-04-10T11:20:27.321Z,2.50
2023-04-10T11:23:07.291Z,2.15
2023-04-10T11:25:46.738Z,2.40
2023-04-10T11:28:32.409Z,2.10
2023-04-10T11:31:22.821Z,1.58
2023-04-10T11:34:00.484Z,1.90
2023-04-10T11:36:27.595Z,1.90
2023-04-10T11:39:00.554Z,1.75
2023-04-10T11:41:36.647Z,1.77
2023-04-10T11:44:08.497Z,1.70
2023-04-10T11:46:40.467Z,1.40
2023-04-10T11:49:09.749Z,1.40
2023-04-10T11:51:40.714Z,1.40
2023-04-10T11:54:12.358Z,3.38
2023-04-10T11:56:41.044Z,1.58
2023-04-10T11:59:11.132Z,1.20
2023-04-10T12:01:39.940Z,1.40
2023-04-10T12:04:17.196Z,1.55
2023-04-10T12:06:51.943Z,1.13
2023-04-10T12:11:59.568Z,1.30
2023-04-10T12:14:31.998Z,1.25
2023-04-10T12:17:00.110Z,1.55
2023-04-10T12:19:27.660Z,1.30
2023-04-10T12:21:56.002Z,1.48
2023-04-10T12:24:46.286Z,2.75
2023-04-10T12:27:27.669Z,1.40
2023-04-10T12:29:57.815Z,1.35
2023-04-10T12:32:25.853Z,1.48
2023-04-10T12:34:54.039Z,1.30
2023-04-10T12:37:21.212Z,1.20
2023-04-10T12:39:48.125Z,1.40
2023-04-10T12:42:21.221Z,1.38
2023-04-10T12:44:59.398Z,1.33
2023-04-10T12:47:28.187Z,1.30
2023-04-10T12:50:10.906Z,1.38
2023-04-10T12:52:40.314Z,1.20
2023-04-10T12:55:13.143Z,1.30
2023-04-10T12:57:41.555Z,1.10
2023-04-10T13:00:11.229Z,1.67
2023-04-10T13:02:39.172Z,1.10
2023-04-10T13:05:07.092Z,1.00
2023-04-10T13:07:33.919Z,1.05
2023-04-10T13:10:00.883Z,1.13
2023-04-10T13:12:28.930Z,1.10
2023-04-10T13:14:56.205Z,1.20
2023-04-10T13:17:26.276Z,1.20
2023-04-10T13:19:53.643Z,1.52
2023-04-10T13:22:20.883Z,1.13
2023-04-10T13:24:47.630Z,1.05
2023-04-10T13:27:14.428Z,1.25
2023-04-10T13:29:42.893Z,1.10
2023-04-10T13:32:10.151Z,1.02
2023-04-10T13:34:36.884Z,1.35
2023-04-10T13:37:03.826Z,1.10
2023-04-10T13:39:31.508Z,1.10
2023-04-10T13:41:59.456Z,1.15
2023-04-10T13:44:26.457Z,1.40
2023-04-10T13:46:53.892Z,1.10
2023-04-10T13:49:22.256Z,1.27
2023-04-10T13:51:49.349Z,1.30
2023-04-10T13:54:20.086Z,0.77
2023-04-10T13:56:47.107Z,1.20
2023-04-10T13:59:14.010Z,0.90
2023-04-10T14:01:40.958Z,0.90
2023-04-10T14:04:08.040Z,0.80
2023-04-10T14:06:35.276Z,0.80
2023-04-10T14:09:02.188Z,0.90
2023-04-10T14:11:28.893Z,1.00
2023-04-10T14:13:55.714Z,1.60
2023-04-10T14:16:22.435Z,0.90
2023-04-10T14:18:49.324Z,0.90
2023-04-10T14:21:16.366Z,0.98
2023-04-10T14:23:43.624Z,1.02
2023-04-10T14:26:10.298Z,1.30
2023-04-10T14:28:37.009Z,0.80
2023-04-10T14:31:05.030Z,1.75
2023-04-10T14:33:31.822Z,1.17
2023-04-10T14:35:58.683Z,0.98
2023-04-10T14:38:25.347Z,0.93
2023-04-10T14:40:52.226Z,1.10
2023-04-10T14:43:19.618Z,0.98
2023-04-10T14:45:46.512Z,0.80
2023-04-10T14:48:13.585Z,1.20
2023-04-10T14:50:40.652Z,2.33
2023-04-10T14:53:09.733Z,0.90
2023-04-10T14:55:37.492Z,1.27
2023-04-10T14:58:04.414Z,1.00
2023-04-10T15:00:32.222Z,1.10
2023-04-10T15:02:59.285Z,1.25
2023-04-10T15:05:27.153Z,1.10
2023-04-10T15:07:54.899Z,1.20
2023-04-10T15:10:21.799Z,0.90
2023-04-10T15:12:48.553Z,0.85
2023-04-10T15:15:15.424Z,1.10
2023-04-10T15:17:42.151Z,0.95
2023-04-10T15:20:09.400Z,1.38
2023-04-10T15:22:36.052Z,1.40
2023-04-10T15:25:02.943Z,0.75
2023-04-10T15:27:29.721Z,1.17
2023-04-10T15:29:56.604Z,0.77
2023-04-10T15:32:23.430Z,0.98
2023-04-10T15:34:50.256Z,1.00
2023-04-10T15:37:17.002Z,0.98
2023-04-10T15:39:43.699Z,1.27
2023-04-10T15:42:10.523Z,1.42
2023-04-10T15:44:37.345Z,1.10
2023-04-10T15:47:04.103Z,1.05
2023-04-10T15:49:37.925Z,1.23
2023-04-10T15:52:06.663Z,1.30
2023-04-10T15:54:34.286Z,0.80
2023-04-10T15:57:02.314Z,1.20
2023-04-10T15:59:29.459Z,0.88
2023-04-10T16:01:56.528Z,1.92
2023-04-10T16:04:23.755Z,0.90
2023-04-10T16:06:50.759Z,2.42
2023-04-10T16:11:47.822Z,1.10
2023-04-10T16:14:14.567Z,2.03
2023-04-10T16:16:41.306Z,1.10
2023-04-10T16:19:08.048Z,1.02
2023-04-10T16:21:34.697Z,1.17
2023-04-10T16:24:01.437Z,1.10
2023-04-10T16:26:28.510Z,1.42
2023-04-10T16:28:55.440Z,1.38
2023-04-10T16:31:22.514Z,2.60
2023-04-10T16:33:49.241Z,1.75
2023-04-10T16:36:16.001Z,2.88
2023-04-10T16:38:43.628Z,2.75
2023-04-10T16:41:12.420Z,1.40
2023-04-10T16:43:39.295Z,2.55
2023-04-10T16:46:06.101Z,3.53
2023-04-10T16:48:34.977Z,1.67
2023-04-10T16:51:06.192Z,2.90
2023-04-10T16:53:33.716Z,2.20
2023-04-10T16:56:02.913Z,2.40
2023-04-10T16:58:31.478Z,1.85
2023-04-10T17:00:58.971Z,1.73
2023-04-10T17:03:25.756Z,1.10
2023-04-10T17:05:52.441Z,1.58
2023-04-10T17:08:19.188Z,2.65
2023-04-10T17:10:45.971Z,1.65
2023-04-10T17:13:12.770Z,2.47
2023-04-10T17:15:39.439Z,3.58
2023-04-10T17:18:06.237Z,1.13
2023-04-10T17:20:36.754Z,2.00
2023-04-10T17:23:03.629Z,2.15
2023-04-10T17:25:30.458Z,4.82
2023-04-10T17:27:57.838Z,1.33
2023-04-10T17:30:24.607Z,2.95
2023-04-10T17:32:51.398Z,1.63
2023-04-10T17:35:18.218Z,1.88
2023-04-10T17:37:44.878Z,1.45
2023-04-10T17:40:12.137Z,8.77
2023-04-10T17:42:38.870Z,4.22
2023-04-10T17:45:06.250Z,5.72
2023-04-10T17:47:33.023Z,4.97
2023-04-10T17:49:59.739Z,5.78
2023-04-10T17:52:26.498Z,3.70
2023-04-10T17:54:53.238Z,2.28
2023-04-10T17:57:20.077Z,2.42
2023-04-10T17:59:46.818Z,1.92
2023-04-10T18:02:13.526Z,2.58
2023-04-10T18:04:40.309Z,1.73
2023-04-10T18:07:07.086Z,2.40
2023-04-10T18:09:33.821Z,2.20
2023-04-10T18:12:01.372Z,4.63
2023-04-10T18:14:28.283Z,2.08
2023-04-10T18:16:55.165Z,2.22
2023-04-10T18:19:21.918Z,3.22
2023-04-10T18:21:49.319Z,4.00
2023-04-10T18:24:16.120Z,5.22
2023-04-10T18:26:45.142Z,3.20
2023-04-10T18:29:11.888Z,3.17
2023-04-10T18:31:38.626Z,2.40
2023-04-10T18:34:08.419Z,3.35
2023-04-10T18:36:35.659Z,3.33
2023-04-10T18:39:02.376Z,3.05
2023-04-10T18:41:29.055Z,4.65
2023-04-10T18:44:04.147Z,3.92
2023-04-10T18:46:32.614Z,4.40
2023-04-10T18:49:00.950Z,3.80
2023-04-10T18:51:28.510Z,3.97
2023-04-10T18:53:55.582Z,4.57
2023-04-10T18:56:22.641Z,4.60
2023-04-10T18:58:50.319Z,4.75
2023-04-10T19:01:20.600Z,6.22
2023-04-10T19:03:49.957Z,7.30
2023-04-10T19:06:23.774Z,5.38
2023-04-10T19:08:51.135Z,6.00
2023-04-10T19:11:18.615Z,5.78
2023-04-10T19:13:45.506Z,3.85
2023-04-10T19:16:19.232Z,4.40
2023-04-10T19:18:49.419Z,6.80
2023-04-10T19:21:16.154Z,6.32
2023-04-10T19:23:42.922Z,5.82
2023-04-10T19:26:09.795Z,5.28
2023-04-10T19:28:36.624Z,6.00
2023-04-10T19:31:03.784Z,5.80
2023-04-10T19:33:30.674Z,5.53
2023-04-10T19:35:58.295Z,6.05
2023-04-10T19:38:27.632Z,4.78
2023-04-10T19:40:54.752Z,5.05
2023-04-10T19:43:21.549Z,6.90
2023-04-10T19:45:48.347Z,5.05
2023-04-10T19:48:16.277Z,3.92
2023-04-10T19:50:42.992Z,4.93
2023-04-10T19:53:12.864Z,5.90
2023-04-10T19:55:42.817Z,4.70
2023-04-10T19:58:13.408Z,4.60
2023-04-10T20:00:47.774Z,5.32
2023-04-10T20:03:16.117Z,4.70
2023-04-10T20:05:43.002Z,4.45
2023-04-10T20:08:09.751Z,4.38
2023-04-10T20:10:36.449Z,3.42
2023-04-10T20:13:03.102Z,3.67
2023-04-10T20:15:29.822Z,5.32
2023-04-10T20:17:56.546Z,4.03
2023-04-10T20:20:23.228Z,5.78
2023-04-10T20:22:50.033Z,5.85
2023-04-10T20:25:16.971Z,7.15
2023-04-10T20:27:43.621Z,4.90
2023-04-10T20:30:10.854Z,6.15
2023-04-10T20:32:37.627Z,5.68
2023-04-10T20:35:05.029Z,5.80
2023-04-10T20:37:31.712Z,6.05
2023-04-10T20:39:58.538Z,7.22
2023-04-10T20:42:25.255Z,6.20
2023-04-10T20:44:51.929Z,5.47
2023-04-10T20:47:18.619Z,4.90
2023-04-10T20:49:45.297Z,5.03
2023-04-10T20:52:12.017Z,7.55
2023-04-10T20:54:38.808Z,8.40
2023-04-10T20:57:06.139Z,7.60
2023-04-10T20:59:33.383Z,6.40
2023-04-10T21:02:00.151Z,4.22
2023-04-10T21:04:27.229Z,4.22
2023-04-10T21:06:54.013Z,4.47
2023-04-10T21:09:20.926Z,4.68
2023-04-10T21:11:47.613Z,4.68
2023-04-10T21:14:14.320Z,3.80
2023-04-10T21:16:45.760Z,4.28
2023-04-10T21:19:12.696Z,3.75
2023-04-10T21:21:39.430Z,4.65
2023-04-10T21:24:06.298Z,3.85
2023-04-10T21:26:33.002Z,4.40
2023-04-10T21:28:59.701Z,6.05
2023-04-10T21:31:26.365Z,5.45
2023-04-10T21:33:53.189Z,3.60
2023-04-10T21:36:19.846Z,3.83
2023-04-10T21:38:46.596Z,3.72
2023-04-10T21:41:13.354Z,3.38
2023-04-10T21:43:40.156Z,3.25
2023-04-10T21:46:07.604Z,2.85
2023-04-10T21:48:34.463Z,3.40
2023-04-10T21:51:02.425Z,3.42
2023-04-10T21:53:29.186Z,2.78
2023-04-10T21:55:56.085Z,3.40
2023-04-10T21:58:22.889Z,3.13
2023-04-10T22:00:51.561Z,3.22
2023-04-10T22:03:20.545Z,3.72
2023-04-10T22:05:48.806Z,3.25
2023-04-10T22:08:16.031Z,3.05
2023-04-10T22:10:45.448Z,3.22
2023-04-10T22:13:19.743Z,3.58
2023-04-10T22:15:54.644Z,4.22
2023-04-10T22:18:21.392Z,4.07
2023-04-10T22:20:48.076Z,3.58
2023-04-10T22:23:14.854Z,3.38
2023-04-10T22:25:41.551Z,5.13
2023-04-10T22:28:08.237Z,4.25
2023-04-10T22:30:35.597Z,3.38
2023-04-10T22:33:02.556Z,4.85
2023-04-10T22:35:29.713Z,4.03
2023-04-10T22:37:57.004Z,4.72
2023-04-10T22:40:23.752Z,4.60
2023-04-10T22:42:50.855Z,5.40
2023-04-10T22:45:17.589Z,3.67
2023-04-10T22:47:44.335Z,3.78
2023-04-10T22:50:11.316Z,5.65
2023-04-10T22:52:38.476Z,3.65
2023-04-10T22:55:08.504Z,3.00
2023-04-10T22:57:35.525Z,3.72
2023-04-10T23:00:02.264Z,3.20
2023-04-10T23:02:31.495Z,3.38
2023-04-10T23:04:58.405Z,3.10
2023-04-10T23:07:26.029Z,3.15
2023-04-10T23:09:52.747Z,3.35
2023-04-10T23:12:19.430Z,2.90
2023-04-10T23:14:46.175Z,3.70
2023-04-10T23:17:12.902Z,3.42
2023-04-10T23:19:39.691Z,3.92
2023-04-10T23:22:06.414Z,4.50
2023-04-10T23:24:33.103Z,3.47
2023-04-10T23:26:59.817Z,3.85
2023-04-10T23:29:26.478Z,4.30
2023-04-10T23:31:53.192Z,3.40
2023-04-10T23:34:21.125Z,3.97
2023-04-10T23:36:47.948Z,3.70
2023-04-10T23:39:14.683Z,3.50
2023-04-10T23:41:41.354Z,3.13
2023-04-10T23:44:08.070Z,3.75
2023-04-10T23:46:34.878Z,3.92
2023-04-10T23:49:01.587Z,3.55
2023-04-10T23:51:28.441Z,4.38
2023-04-10T23:53:55.165Z,3.38
2023-04-10T23:56:28.009Z,3.50
2023-04-10T23:58:56.291Z,3.97
